LFBHLFBI

Guest
Details From LFBH - La Rochelle Laleu
To LFBI - Poitiers Biard
Flight Number -
Tags Generated
Created
Modified
Stats Distance 67 nm / 124 km
Max Altitude 0 ft / 0 m
Waypoints 2
Social Downloads 3
Likes 0
Share VATSIM

Download

Looking for another format? Having issues loading an existing format? Contact us
Advertisement - Login to hide

Notes

Generated

Route

LFBH LFBI

ID Type Via Altitude Latitude Longitude Leg Dist Tot Dist Heading (true) Name
O LFBH APT - 0 ft / 0 m 46.17968˚ -1.21101˚ - 0 nm - -
O LFBI APT - 0 ft / 0 m 46.57962˚ 0.30012˚ 67 nm 67 nm 68° / 70° -

Altitude Profile

Advertisement - Login to hide

LFBH

Details ICAO LFBH (LRH)
Name La Rochelle Laleu
Region France
Timezone Europe/Paris (UTC+2.0)
Stats Elevation 74 ft / 23 m (AMSL)
Location 46.179245° -1.196410°
Runways 1
Magnetic Variation 0.244° W

METAR

LFBH 241900Z AUTO 33005KT CAVOK 18/14 Q1015 NOSIG

Decode

TAF

TAF LFBH 241700Z 2418/2518 30010KT CAVOK BECMG 2418/2421 34005KT PROB40 TEMPO 2506/2514 25010KT 3000 SHRA BKN060TCU OVC080 PROB40 2506/2509 BKN005 BECMG 2516/2518 04005KT

Decode

Departure Runways

ID Width Length Bearing (true) Bearing (mag) Surface Threshold Offset Overrun Length
10 148 ft / 45 m 7,383 ft / 2,250 m 92.43° 92.67° Asphalt 1,033 ft / 315 m 0 ft / 0 m
28 148 ft / 45 m 7,383 ft / 2,250 m 272.45° 272.69° Asphalt 1,532 ft / 467 m 0 ft / 0 m

LFBI

Details ICAO LFBI (PIS)
Name Poitiers Biard
Region France
Timezone Europe/Paris (UTC+2.0)
Stats Elevation 423 ft / 129 m (AMSL)
Location 46.588739° 0.307939°
Runways 1
Magnetic Variation 0.181° E

METAR

LFBI 241900Z AUTO 31005KT 9999 SCT044/// BKN120/// OVC140/// ///TCU 20/14 Q1016 TEMPO 1500 -TSRA BKN050CB

Decode

TAF

TAF LFBI 241700Z 2418/2518 20005KT CAVOK TEMPO 2418/2421 4500 SHRA BKN060TCU PROB40 TEMPO 2418/2421 1500 -TSRA BKN050CB BECMG 2419/2421 VRB03KT BECMG 2507/2509 30010KT TEMPO 2510/2518 4500 SHRA SCT020 BKN060TCU PROB30 TEMPO 2515/2518 VRB15G25KT 1200 -TSRAGR BKN015 OVC025CB

Decode

Destination Runways

ID Width Length Bearing (true) Bearing (mag) Surface Threshold Offset Overrun Length
03 148 ft / 45 m 7,725 ft / 2,355 m 30.51° 30.33° Asphalt 0 ft / 0 m 164 ft / 50 m
21 148 ft / 45 m 7,725 ft / 2,355 m 210.53° 210.35° Asphalt 0 ft / 0 m 0 ft / 0 m

Approach Navaids

Runway Type Ident Frequency Range Bearing (true) Bearing (mag) Slope Elevation
21 Localiser PT 110.95 MHz 18 nm / 33 km 210.51° 210.33° - 412 ft / 126 m (AMSL)
21 Glidescope PT 110.95 MHz 10 nm / 19 km 210.52° 210.34° 3.00° 412 ft / 126 m (AMSL)
21 DME PT 110.95 MHz 18 nm / 33 km - - - 455 ft / 139 m (AMSL)

Popular Alternatives